Time;durP1;ratioP1;P1;durP2;ratioP2;P2;SDS_P1;SDS_P2;PMS_P1;PMS_P2;Temp;Humidity;BMP_temperature;BMP_pressure;BME280_temperature;BME280_humidity;BME280_pressure;Samples;Min_cycle;Max_cycle;Signal;HPM_P1;HPM_P2
2022/08/18 00:01:24;;;;;;;6.70;6.10;;;19.70;99.90;;;;;;4934181;29;20444;-69
2022/08/18 00:03:50;;;;;;;5.80;5.17;;;19.60;99.90;;;;;;4935558;29;20783;-71
2022/08/18 00:06:17;;;;;;;7.17;6.00;;;19.60;99.90;;;;;;4935627;29;20181;-72
2022/08/18 00:08:42;;;;;;;7.13;6.30;;;19.60;99.90;;;;;;4935225;29;20436;-71
2022/08/18 00:11:08;;;;;;;6.83;6.23;;;19.60;99.90;;;;;;4934090;29;20441;-70
2022/08/18 00:13:34;;;;;;;5.73;5.10;;;19.60;99.90;;;;;;4935180;29;20220;-69
2022/08/18 00:16:00;;;;;;;6.63;6.03;;;19.60;99.90;;;;;;4935378;29;20524;-71
2022/08/18 00:18:25;;;;;;;5.87;5.27;;;19.50;99.90;;;;;;4935136;29;20428;-69
2022/08/18 00:20:51;;;;;;;7.93;6.13;;;19.50;99.90;;;;;;4934605;29;21147;-71
2022/08/18 00:23:17;;;;;;;6.33;5.73;;;19.50;99.90;;;;;;4934381;29;20522;-72
2022/08/18 00:25:44;;;;;;;6.13;5.63;;;19.40;99.90;;;;;;4934782;29;20181;-71
2022/08/18 00:28:10;;;;;;;7.00;6.50;;;19.40;99.90;;;;;;4935185;29;20185;-71
2022/08/18 00:30:36;;;;;;;6.20;5.60;;;19.30;99.90;;;;;;4933986;29;20417;-71
2022/08/18 00:33:01;;;;;;;6.20;5.70;;;19.20;99.90;;;;;;4934785;29;20480;-72
2022/08/18 00:35:36;;;;;;;7.17;6.43;;;19.20;99.90;;;;;;4934039;29;20662;-71
2022/08/18 00:38:06;;;;;;;6.00;5.60;;;19.20;99.90;;;;;;4934926;29;20168;-72
2022/08/18 00:40:44;;;;;;;6.50;5.87;;;19.20;99.90;;;;;;4933993;29;20413;-67
2022/08/18 00:43:18;;;;;;;7.57;6.37;;;19.10;99.90;;;;;;4934733;29;20424;-71
2022/08/18 00:45:45;;;;;;;6.90;6.30;;;19.10;99.90;;;;;;4934428;29;20943;-71
2022/08/18 00:48:12;;;;;;;6.50;6.00;;;19.10;99.90;;;;;;4934313;29;20417;-71
2022/08/18 00:50:51;;;;;;;6.23;5.73;;;19.10;99.90;;;;;;4933803;29;20886;-70
2022/08/18 00:53:28;;;;;;;6.53;6.03;;;19.10;99.90;;;;;;4922511;29;20490;-74
2022/08/18 00:55:58;;;;;;;5.80;5.30;;;19.10;99.90;;;;;;4816523;29;20596;-72
2022/08/18 00:58:31;;;;;;;10.83;6.80;;;19.00;99.90;;;;;;4814601;29;20644;-73
2022/08/18 02:31:34;;;;;;;7.07;6.37;;;18.70;99.90;;;;;;5618282;23;20511;-68
2022/08/18 02:33:59;;;;;;;7.00;6.40;;;18.70;99.90;;;;;;4950983;28;20798;-70
2022/08/18 02:36:25;;;;;;;7.10;6.40;;;18.70;99.90;;;;;;4936636;29;20209;-68
2022/08/18 02:38:51;;;;;;;8.80;6.43;;;18.70;99.90;;;;;;4932683;29;20233;-71
2022/08/18 02:41:16;;;;;;;7.40;6.30;;;18.60;99.90;;;;;;4932217;29;20197;-71
2022/08/18 02:43:42;;;;;;;6.60;6.00;;;18.60;99.90;;;;;;4933024;29;20256;-70
2022/08/18 02:46:08;;;;;;;6.80;6.20;;;18.60;99.90;;;;;;4932413;29;20260;-70
2022/08/18 02:48:34;;;;;;;7.23;6.60;;;18.60;99.90;;;;;;4932925;29;20268;-69
2022/08/18 02:51:08;;;;;;;9.23;6.37;;;18.60;99.90;;;;;;4932265;29;20312;-70
2022/08/18 02:53:35;;;;;;;7.27;6.53;;;18.60;99.90;;;;;;4931730;29;20212;-69
2022/08/18 02:56:27;;;;;;;6.77;6.17;;;18.60;99.90;;;;;;4932400;29;20417;-70
2022/08/18 02:58:58;;;;;;;6.60;6.00;;;18.60;99.90;;;;;;4932647;29;20493;-71
2022/08/18 03:01:30;;;;;;;10.07;6.83;;;18.60;99.90;;;;;;4931293;29;20465;-69
2022/08/18 03:03:56;;;;;;;7.07;6.57;;;18.60;99.90;;;;;;4932762;29;20497;-72
2022/08/18 03:06:23;;;;;;;11.20;6.80;;;18.60;99.90;;;;;;4932619;29;20844;-71
2022/08/18 03:08:50;;;;;;;6.80;6.30;;;18.60;99.90;;;;;;4932160;29;20422;-71
2022/08/18 03:11:17;;;;;;;7.70;7.13;;;18.60;99.90;;;;;;4932006;29;20591;-69
2022/08/18 03:13:43;;;;;;;7.37;6.70;;;18.60;99.90;;;;;;4932849;29;20471;-72
2022/08/18 03:16:08;;;;;;;7.47;6.77;;;18.60;99.90;;;;;;4932580;29;20780;-72
2022/08/18 03:18:34;;;;;;;6.50;6.00;;;18.70;99.90;;;;;;4932272;29;20534;-71
2022/08/18 03:21:22;;;;;;;7.57;6.97;;;18.60;99.90;;;;;;4932087;29;20248;-71
2022/08/18 03:23:50;;;;;;;7.83;6.60;;;18.60;99.90;;;;;;4932578;29;20582;-71
2022/08/18 03:26:17;;;;;;;7.57;6.20;;;18.60;99.90;;;;;;4932824;29;20910;-71
2022/08/18 03:28:45;;;;;;;7.47;6.77;;;18.70;99.90;;;;;;4932047;29;20922;-71
2022/08/18 03:31:13;;;;;;;7.60;6.90;;;18.60;99.90;;;;;;4934914;29;20474;-71
2022/08/18 03:33:40;;;;;;;7.23;6.60;;;18.60;99.90;;;;;;4935832;29;20465;-71
2022/08/18 03:36:11;;;;;;;8.03;6.33;;;18.60;99.90;;;;;;4935903;29;20424;-69
2022/08/18 03:38:41;;;;;;;8.07;7.37;;;18.60;99.90;;;;;;4936257;29;20413;-72
2022/08/18 03:41:11;;;;;;;7.23;6.63;;;18.60;99.90;;;;;;4934798;29;20448;-72
2022/08/18 03:43:37;;;;;;;7.47;6.77;;;18.60;99.90;;;;;;4935646;29;20417;-71
2022/08/18 03:46:05;;;;;;;7.23;6.57;;;18.60;99.90;;;;;;4935906;29;20790;-71
2022/08/18 03:48:32;;;;;;;6.73;6.17;;;18.60;99.90;;;;;;4935851;29;20191;-71
2022/08/18 03:51:24;;;;;;;6.80;6.17;;;18.60;99.90;;;;;;4935205;29;20438;-71
2022/08/18 03:53:50;;;;;;;7.80;6.50;;;18.60;99.90;;;;;;4935639;29;20464;-71
2022/08/18 03:56:22;;;;;;;7.20;6.60;;;18.60;99.90;;;;;;4934972;29;20461;-71
2022/08/18 03:58:51;;;;;;;7.23;6.53;;;18.60;99.90;;;;;;4935533;29;20228;-72
2022/08/18 04:01:19;;;;;;;7.57;6.87;;;18.60;99.90;;;;;;4934676;29;20936;-70
2022/08/18 04:03:48;;;;;;;7.90;7.20;;;18.60;99.90;;;;;;4935440;29;20416;-68
2022/08/18 04:06:18;;;;;;;7.80;6.47;;;18.60;99.90;;;;;;4934825;29;20929;-71
2022/08/18 04:08:45;;;;;;;7.00;6.40;;;18.60;99.90;;;;;;4936234;29;20918;-75
2022/08/18 04:11:11;;;;;;;7.83;7.13;;;18.60;99.90;;;;;;4935374;29;20437;-73
2022/08/18 04:13:38;;;;;;;8.40;6.57;;;18.60;99.90;;;;;;4932857;29;20472;-70
2022/08/18 04:16:04;;;;;;;7.93;7.23;;;18.60;99.90;;;;;;4934379;29;20778;-73
2022/08/18 04:18:30;;;;;;;6.77;6.10;;;18.60;99.90;;;;;;4935410;29;20418;-73
2022/08/18 04:20:57;;;;;;;6.90;6.30;;;18.60;99.90;;;;;;4934132;29;20441;-74
2022/08/18 04:23:23;;;;;;;7.20;6.60;;;18.60;99.90;;;;;;4935073;29;20837;-74
2022/08/18 04:25:59;;;;;;;7.00;6.30;;;18.60;99.90;;;;;;4935169;29;20417;-76
2022/08/18 04:28:26;;;;;;;7.43;6.87;;;18.60;99.90;;;;;;4935136;29;20188;-76
2022/08/18 04:30:52;;;;;;;7.20;6.50;;;18.60;99.90;;;;;;4934109;29;21036;-74
2022/08/18 04:33:18;;;;;;;6.27;5.77;;;18.60;99.90;;;;;;4934732;29;21000;-74
2022/08/18 04:35:45;;;;;;;7.80;7.10;;;18.60;99.90;;;;;;4935152;29;20409;-74
2022/08/18 04:38:10;;;;;;;7.60;6.90;;;18.60;99.90;;;;;;4935002;29;20176;-74
2022/08/18 04:40:36;;;;;;;7.03;6.40;;;18.60;99.90;;;;;;4933368;29;20429;-72
2022/08/18 04:43:02;;;;;;;7.80;6.47;;;18.60;99.90;;;;;;4933970;29;20217;-74
2022/08/18 04:45:28;;;;;;;7.00;6.40;;;18.60;99.90;;;;;;4934470;29;20178;-73
2022/08/18 04:47:54;;;;;;;7.73;7.07;;;18.60;99.90;;;;;;4934758;29;20185;-73
2022/08/18 04:50:20;;;;;;;6.47;5.80;;;18.60;99.90;;;;;;4934497;29;20424;-74
2022/08/18 04:55:30;;;;;;;7.30;6.70;;;18.60;99.90;;;;;;4934205;29;20228;-73
2022/08/18 04:57:58;;;;;;;7.33;6.53;;;18.70;99.90;;;;;;4934370;29;20426;-72
2022/08/18 05:00:24;;;;;;;13.03;7.47;;;18.70;99.90;;;;;;4933817;29;20193;-70
2022/08/18 05:02:49;;;;;;;7.80;7.10;;;18.70;99.90;;;;;;4933843;29;20473;-71
2022/08/18 05:05:15;;;;;;;7.87;7.20;;;18.80;99.90;;;;;;4933822;29;20184;-71
2022/08/18 05:07:45;;;;;;;6.00;5.50;;;18.80;99.90;;;;;;4934157;29;20341;-71
2022/08/18 05:10:11;;;;;;;8.03;7.33;;;18.90;99.90;;;;;;4934078;29;20195;-71
2022/08/18 05:12:40;;;;;;;8.37;7.53;;;18.90;99.90;;;;;;4932732;29;20527;-71
2022/08/18 05:15:07;;;;;;;7.40;6.80;;;19.00;99.90;;;;;;4934010;29;20465;-71
2022/08/18 05:17:38;;;;;;;7.07;6.10;;;19.10;99.90;;;;;;4933727;29;20449;-71
2022/08/18 05:20:06;;;;;;;7.60;6.90;;;19.10;99.90;;;;;;4933012;29;20468;-71
2022/08/18 05:22:37;;;;;;;7.10;6.50;;;19.20;99.90;;;;;;4932452;29;20609;-72
2022/08/18 05:25:04;;;;;;;7.00;6.40;;;19.30;99.90;;;;;;4934109;29;20937;-71
2022/08/18 05:27:34;;;;;;;6.33;5.90;;;19.40;99.90;;;;;;4933731;29;20477;-71
2022/08/18 05:30:00;;;;;;;8.40;7.60;;;19.70;99.90;;;;;;4933798;29;20413;-72
2022/08/18 05:32:26;;;;;;;7.17;6.60;;;20.00;99.90;;;;;;4932616;29;20520;-71
2022/08/18 05:34:52;;;;;;;7.57;6.87;;;20.50;99.90;;;;;;4933363;29;20425;-71
2022/08/18 05:37:34;;;;;;;7.43;6.73;;;20.80;99.90;;;;;;4933689;29;20476;-71
2022/08/18 05:40:01;;;;;;;7.10;6.50;;;21.10;99.90;;;;;;4933841;29;20273;-72
2022/08/18 05:42:34;;;;;;;6.90;6.30;;;21.30;99.90;;;;;;4932618;29;20453;-71
2022/08/18 05:45:00;;;;;;;7.10;6.50;;;21.80;99.90;;;;;;4933103;29;20484;-71
2022/08/18 05:47:30;;;;;;;6.53;6.00;;;22.10;99.90;;;;;;4933331;29;20463;-71
2022/08/18 05:50:09;;;;;;;6.70;6.00;;;22.60;99.90;;;;;;4933404;29;20914;-71
2022/08/18 05:53:00;;;;;;;7.57;6.97;;;23.00;99.90;;;;;;4932391;29;20477;-69
2022/08/18 05:58:30;;;;;;;8.50;7.20;;;22.80;99.90;;;;;;4963746;28;20626;-72
2022/08/18 06:01:04;;;;;;;8.47;7.50;;;22.40;99.90;;;;;;4970964;28;20435;-72
2022/08/18 06:03:35;;;;;;;7.83;6.87;;;22.20;99.90;;;;;;4971680;28;20935;-70
2022/08/18 06:06:09;;;;;;;7.90;7.10;;;22.10;99.90;;;;;;4971260;28;20415;-70
2022/08/18 06:08:42;;;;;;;7.63;6.97;;;22.00;99.90;;;;;;4971719;28;20415;-69
2022/08/18 06:11:08;;;;;;;15.23;8.07;;;22.00;99.90;;;;;;4971072;28;20526;-71
2022/08/18 06:13:41;;;;;;;11.23;8.37;;;22.00;99.90;;;;;;4971478;28;20475;-72
2022/08/18 06:16:39;;;;;;;12.40;7.20;;;21.80;99.90;;;;;;4970286;28;20796;-69
2022/08/18 06:19:35;;;;;;;7.93;6.93;;;21.80;99.90;;;;;;4971082;28;20912;-70
2022/08/18 06:22:15;;;;;;;9.30;7.13;;;21.80;99.90;;;;;;4971068;28;20804;-70
2022/08/18 06:25:01;;;;;;;8.00;7.23;;;22.00;99.90;;;;;;4971543;28;20510;-70
2022/08/18 06:27:42;;;;;;;9.77;8.40;;;22.10;99.90;;;;;;4971410;28;20488;-70
2022/08/18 06:30:20;;;;;;;13.80;7.90;;;22.30;99.90;;;;;;4971148;28;20447;-70
2022/08/18 06:33:08;;;;;;;8.50;7.70;;;22.30;99.90;;;;;;4970516;28;20478;-70
2022/08/18 06:35:36;;;;;;;7.73;7.07;;;22.30;99.90;;;;;;4971671;28;20447;-71
2022/08/18 06:41:10;;;;;;;8.40;7.60;;;22.40;99.90;;;;;;4970318;28;20482;-69
2022/08/18 06:43:50;;;;;;;8.40;7.27;;;22.50;99.90;;;;;;4971536;28;20928;-69
2022/08/18 06:46:19;;;;;;;9.70;8.80;;;22.50;99.90;;;;;;4971272;28;20426;-70
2022/08/18 06:48:55;;;;;;;7.97;7.37;;;22.60;99.90;;;;;;4971248;28;20553;-69
2022/08/18 06:51:26;;;;;;;7.50;6.90;;;22.60;99.90;;;;;;4970300;28;20441;-70
2022/08/18 06:53:54;;;;;;;7.50;6.77;;;22.60;99.90;;;;;;4970751;28;20466;-70
2022/08/18 06:56:30;;;;;;;6.57;6.00;;;22.70;99.90;;;;;;4970906;28;20975;-69
2022/08/18 06:59:21;;;;;;;6.93;6.33;;;22.60;99.90;;;;;;4971288;28;20901;-69
2022/08/18 07:01:50;;;;;;;10.23;6.77;;;22.70;99.90;;;;;;4970448;28;20945;-70
2022/08/18 07:04:37;;;;;;;7.37;6.80;;;22.70;99.90;;;;;;4971519;28;20408;-69
2022/08/18 07:07:35;;;;;;;6.90;6.30;;;22.80;99.90;;;;;;4973323;28;20415;-68
2022/08/18 07:10:28;;;;;;;7.90;7.10;;;22.80;99.90;;;;;;4958625;28;20431;-70
2022/08/18 07:13:14;;;;;;;6.93;6.43;;;22.70;99.90;;;;;;4970654;28;20482;-70
2022/08/18 07:15:42;;;;;;;6.43;5.90;;;22.80;99.90;;;;;;4974843;28;20519;-69
2022/08/18 07:18:09;;;;;;;7.17;6.50;;;22.80;99.90;;;;;;4973884;28;20415;-70
2022/08/18 07:20:44;;;;;;;7.00;6.40;;;22.80;99.90;;;;;;4973857;28;20423;-66
2022/08/18 07:23:24;;;;;;;7.00;6.50;;;22.70;99.90;;;;;;4974518;28;20455;-71
2022/08/18 07:25:59;;;;;;;6.70;6.10;;;22.60;99.90;;;;;;4974070;28;20423;-70
2022/08/18 07:28:30;;;;;;;7.00;6.40;;;22.60;99.90;;;;;;4974431;28;20418;-71
2022/08/18 07:31:24;;;;;;;10.77;6.70;;;22.60;99.90;;;;;;4973632;28;20474;-71
2022/08/18 07:34:01;;;;;;;7.17;6.57;;;22.50;99.90;;;;;;4974487;28;20552;-71
2022/08/18 07:36:32;;;;;;;6.87;6.37;;;22.30;99.90;;;;;;4973901;28;20506;-71
2022/08/18 07:39:13;;;;;;;8.13;7.33;;;22.30;99.90;;;;;;4974119;28;20502;-70
2022/08/18 07:41:48;;;;;;;7.00;6.50;;;22.30;99.90;;;;;;4974017;28;20445;-70
2022/08/18 07:44:19;;;;;;;7.10;6.60;;;22.20;99.90;;;;;;4974176;28;20421;-71
2022/08/18 07:46:45;;;;;;;6.90;6.13;;;22.10;99.90;;;;;;4974005;28;20908;-72
2022/08/18 07:49:21;;;;;;;7.23;6.50;;;22.00;99.90;;;;;;4976419;28;20415;-71
2022/08/18 07:52:03;;;;;;;8.00;7.20;;;21.80;99.90;;;;;;4975697;28;20204;-71
2022/08/18 07:55:07;;;;;;;7.80;7.10;;;21.80;99.90;;;;;;4974458;28;20498;-72
2022/08/18 07:58:05;;;;;;;7.60;7.00;;;21.70;99.90;;;;;;4969503;28;20431;-72
2022/08/18 08:00:35;;;;;;;8.97;7.40;;;21.70;99.90;;;;;;4973656;28;20442;-71
2022/08/18 08:03:21;;;;;;;7.93;7.33;;;21.70;99.90;;;;;;4974258;28;20415;-71
2022/08/18 08:06:04;;;;;;;8.67;7.97;;;21.70;99.90;;;;;;4974026;28;20426;-68
2022/08/18 08:08:42;;;;;;;7.77;6.80;;;21.70;99.90;;;;;;4974131;28;20447;-71
2022/08/18 08:11:36;;;;;;;7.10;6.50;;;21.60;99.90;;;;;;4972710;28;20835;-71
2022/08/18 08:14:21;;;;;;;8.27;7.20;;;21.50;99.90;;;;;;4973814;28;20470;-70
2022/08/18 08:17:01;;;;;;;6.80;6.20;;;21.50;99.90;;;;;;4973604;28;20403;-71
2022/08/18 08:20:09;;;;;;;7.03;6.40;;;21.50;99.90;;;;;;4973537;28;20450;-71
2022/08/18 08:22:44;;;;;;;7.70;7.00;;;21.50;99.90;;;;;;4961882;28;20792;-70
2022/08/18 08:25:22;;;;;;;8.73;7.90;;;21.50;99.90;;;;;;4973411;28;20455;-71
2022/08/18 08:28:08;;;;;;;8.07;6.90;;;21.50;99.90;;;;;;4973714;28;20424;-70
2022/08/18 08:30:43;;;;;;;7.03;6.33;;;21.50;99.90;;;;;;4972491;28;20514;-69
2022/08/18 08:33:30;;;;;;;8.20;7.30;;;21.60;99.90;;;;;;4973465;28;20558;-71
2022/08/18 08:36:16;;;;;;;9.60;7.40;;;21.70;99.90;;;;;;4973308;28;20514;-71
2022/08/18 08:38:50;;;;;;;7.87;7.27;;;21.90;99.90;;;;;;4973352;28;20452;-69
2022/08/18 08:41:25;;;;;;;12.20;6.37;;;22.00;99.90;;;;;;4971841;28;20518;-70
2022/08/18 08:44:04;;;;;;;7.10;6.60;;;22.20;99.90;;;;;;4972916;28;20410;-72
2022/08/18 08:46:38;;;;;;;7.47;6.77;;;22.30;99.90;;;;;;4973027;28;20418;-71
2022/08/18 08:49:18;;;;;;;8.20;7.50;;;22.70;99.90;;;;;;4974056;28;20498;-71
2022/08/18 08:51:56;;;;;;;7.17;6.57;;;23.00;99.90;;;;;;4973241;28;20440;-71
2022/08/18 08:54:44;;;;;;;6.77;6.17;;;23.20;99.90;;;;;;4973108;28;20855;-68
2022/08/18 08:57:12;;;;;;;8.27;7.57;;;23.20;99.90;;;;;;4973033;28;20415;-71
2022/08/18 08:59:40;;;;;;;8.67;7.90;;;23.50;99.90;;;;;;4973476;28;20494;-72
2022/08/18 09:02:07;;;;;;;7.40;6.70;;;23.80;99.90;;;;;;4972383;28;20482;-71
2022/08/18 09:05:02;;;;;;;6.93;6.30;;;24.60;99.90;;;;;;4972878;28;20920;-71
2022/08/18 09:07:53;;;;;;;6.90;6.30;;;24.90;99.90;;;;;;4972585;28;20400;-71
2022/08/18 09:10:58;;;;;;;7.97;7.27;;;24.90;99.90;;;;;;4972127;28;20482;-71
2022/08/18 09:13:54;;;;;;;8.33;7.10;;;24.80;99.90;;;;;;4932633;28;20477;-70
2022/08/18 09:16:25;;;;;;;10.17;9.17;;;24.60;99.90;;;;;;4972613;28;20419;-71
2022/08/18 09:19:26;;;;;;;10.60;7.87;;;24.80;99.90;;;;;;4972083;28;20494;-71
2022/08/18 09:22:10;;;;;;;9.63;8.60;;;25.00;99.90;;;;;;4972146;28;20805;-70
2022/08/18 09:24:45;;;;;;;8.97;8.17;;;25.50;99.90;;;;;;4972451;28;20476;-70
2022/08/18 09:27:13;;;;;;;11.53;7.77;;;26.10;99.90;;;;;;4971641;28;20407;-71
2022/08/18 09:29:57;;;;;;;9.37;8.37;;;26.30;99.90;;;;;;4970407;28;20471;-71
2022/08/18 09:32:24;;;;;;;9.57;8.60;;;25.90;99.90;;;;;;4971281;28;20494;-69
2022/08/18 09:35:02;;;;;;;8.37;7.60;;;25.80;99.90;;;;;;4972329;28;20414;-71
2022/08/18 09:37:30;;;;;;;12.60;8.77;;;25.80;99.90;;;;;;4972157;28;20447;-71
2022/08/18 09:43:06;;;;;;;8.23;7.03;;;25.80;99.90;;;;;;4972063;28;20522;-71
2022/08/18 09:45:31;;;;;;;7.90;7.20;;;26.30;99.90;;;;;;4972678;28;20469;-70
2022/08/18 09:48:25;;;;;;;7.53;6.83;;;27.10;99.90;;;;;;4972143;28;20506;-71
2022/08/18 09:50:55;;;;;;;8.13;7.47;;;27.60;99.90;;;;;;4971296;28;20211;-71
2022/08/18 09:53:53;;;;;;;8.60;8.00;;;27.70;99.90;;;;;;4971694;28;20541;-69
2022/08/18 09:56:47;;;;;;;7.87;7.20;;;28.10;99.90;;;;;;4971448;28;20466;-71
2022/08/18 09:59:32;;;;;;;7.80;6.77;;;27.90;99.90;;;;;;4971795;28;20406;-71
2022/08/18 10:02:07;;;;;;;8.70;8.00;;;28.20;99.90;;;;;;4971133;28;20439;-72
2022/08/18 10:04:34;;;;;;;10.00;9.00;;;27.80;99.90;;;;;;4971665;28;20418;-72
2022/08/18 10:07:30;;;;;;;9.60;8.00;;;27.40;99.90;;;;;;4971683;28;20907;-71
2022/08/18 10:10:09;;;;;;;12.60;9.00;;;27.60;99.90;;;;;;4971248;28;20471;-73
2022/08/18 10:12:55;;;;;;;10.23;7.23;;;27.60;99.90;;;;;;4970981;28;20834;-72
2022/08/18 10:15:32;;;;;;;9.60;8.73;;;27.30;99.90;;;;;;4971336;28;20451;-71
2022/08/18 10:18:25;;;;;;;8.90;8.10;;;27.10;99.90;;;;;;4971755;28;20469;-71
2022/08/18 10:21:06;;;;;;;8.83;8.10;;;27.90;99.90;;;;;;4970936;28;20408;-71
2022/08/18 10:24:04;;;;;;;9.40;8.40;;;28.80;99.90;;;;;;4971613;28;20414;-71
2022/08/18 10:26:29;;;;;;;9.20;8.40;;;29.20;99.90;;;;;;4927716;28;20439;-71
2022/08/18 10:28:59;;;;;;;9.63;8.73;;;29.60;99.90;;;;;;4971712;28;20422;-71
2022/08/18 10:31:26;;;;;;;10.37;9.47;;;30.00;99.90;;;;;;4970448;28;20220;-71
2022/08/18 10:34:00;;;;;;;9.47;8.77;;;29.80;99.90;;;;;;4971424;28;20481;-71
2022/08/18 10:36:58;;;;;;;9.63;8.07;;;30.00;99.90;;;;;;4970799;28;20414;-72
2022/08/18 10:39:42;;;;;;;10.43;8.87;;;30.00;99.90;;;;;;4971970;28;20426;-72
2022/08/18 10:42:32;;;;;;;10.17;9.17;;;30.40;99.90;;;;;;4974900;28;20439;-73
2022/08/18 10:45:22;;;;;;;9.63;8.83;;;29.90;99.90;;;;;;4975587;28;20490;-71
2022/08/18 10:48:03;;;;;;;10.10;8.77;;;29.50;99.90;;;;;;4975192;28;20928;-71
2022/08/18 10:50:59;;;;;;;10.10;9.20;;;29.20;99.90;;;;;;4974241;28;20948;-76
2022/08/18 10:53:42;;;;;;;9.80;8.60;;;28.60;99.90;;;;;;4958048;28;20749;-71
2022/08/18 10:56:19;;;;;;;9.77;8.87;;;28.60;99.90;;;;;;4975176;28;20454;-72
2022/08/18 10:58:47;;;;;;;9.27;8.50;;;28.80;99.90;;;;;;4975393;28;20700;-71
2022/08/18 11:01:22;;;;;;;8.97;8.17;;;29.10;99.90;;;;;;4974206;28;20928;-71
2022/08/18 11:04:08;;;;;;;10.30;8.57;;;28.90;99.90;;;;;;4975366;28;20474;-71
2022/08/18 11:06:40;;;;;;;8.90;7.47;;;28.50;99.90;;;;;;4974998;28;20768;-72
2022/08/18 11:09:07;;;;;;;9.67;8.87;;;28.70;99.90;;;;;;4973159;28;20928;-72
2022/08/18 11:11:43;;;;;;;8.80;8.10;;;29.00;99.90;;;;;;4974215;28;20804;-72
2022/08/18 11:14:28;;;;;;;10.07;9.30;;;29.20;99.90;;;;;;4974801;28;20537;-71
2022/08/18 11:17:08;;;;;;;11.00;9.90;;;29.30;99.90;;;;;;4975227;28;20987;-71
2022/08/18 11:19:38;;;;;;;9.60;8.80;;;29.10;99.90;;;;;;4974248;28;20482;-71
2022/08/18 11:22:04;;;;;;;10.93;9.83;;;28.80;99.90;;;;;;4974036;28;20819;-71
2022/08/18 11:24:34;;;;;;;9.73;8.67;;;28.50;99.90;;;;;;4974523;28;20837;-71
2022/08/18 11:27:20;;;;;;;9.50;8.53;;;28.40;99.90;;;;;;4974545;28;20912;-71
2022/08/18 11:29:46;;;;;;;8.97;8.07;;;28.10;99.90;;;;;;4974073;28;20784;-72
2022/08/18 11:32:30;;;;;;;9.40;8.40;;;28.10;99.90;;;;;;4973607;28;20482;-71
2022/08/18 11:35:01;;;;;;;16.23;9.77;;;27.90;99.90;;;;;;4974792;28;20180;-72
2022/08/18 11:37:32;;;;;;;9.73;8.93;;;27.70;99.90;;;;;;4974313;28;20946;-69
2022/08/18 11:40:00;;;;;;;9.70;8.90;;;27.50;99.90;;;;;;4973885;28;20438;-71
2022/08/18 11:42:32;;;;;;;10.10;9.20;;;27.60;99.90;;;;;;4973531;28;20532;-72
2022/08/18 11:45:16;;;;;;;9.73;8.77;;;27.70;99.90;;;;;;4974797;28;20927;-71
2022/08/18 11:48:20;;;;;;;10.57;9.57;;;27.50;99.90;;;;;;4974165;28;20419;-70
2022/08/18 11:50:54;;;;;;;9.80;8.90;;;27.40;99.90;;;;;;4971820;28;21010;-70
2022/08/18 11:53:38;;;;;;;11.30;10.40;;;27.20;99.90;;;;;;4974160;28;20463;-71
2022/08/18 11:56:13;;;;;;;10.13;9.23;;;27.00;99.90;;;;;;4974332;28;20511;-71
2022/08/18 11:58:58;;;;;;;10.93;9.93;;;27.20;99.90;;;;;;4974235;28;20415;-72
2022/08/18 12:01:39;;;;;;;9.77;8.57;;;27.00;99.90;;;;;;4972545;28;20475;-69
2022/08/18 12:04:21;;;;;;;9.20;8.37;;;27.00;99.90;;;;;;4973862;28;20430;-70
2022/08/18 12:06:58;;;;;;;10.33;9.10;;;27.10;99.90;;;;;;4973668;28;21058;-70
2022/08/18 12:09:32;;;;;;;9.90;8.90;;;27.20;99.90;;;;;;4973657;28;20551;-70
2022/08/18 12:12:03;;;;;;;11.10;10.00;;;27.30;99.90;;;;;;4973131;28;20452;-70
2022/08/18 12:14:51;;;;;;;10.43;9.50;;;27.50;99.90;;;;;;4971759;28;20427;-71
2022/08/18 12:17:17;;;;;;;9.30;8.60;;;27.50;99.90;;;;;;4973471;28;20834;-70
2022/08/18 12:19:42;;;;;;;9.77;8.87;;;27.60;99.90;;;;;;4973889;28;20420;-70
2022/08/18 12:22:17;;;;;;;14.03;9.97;;;27.70;99.90;;;;;;4972951;28;20231;-72
2022/08/18 12:24:44;;;;;;;9.90;8.50;;;27.80;99.90;;;;;;4973236;28;20551;-71
2022/08/18 12:27:11;;;;;;;9.87;8.83;;;27.90;99.90;;;;;;4973700;28;20939;-71
2022/08/18 12:29:37;;;;;;;9.37;8.57;;;27.90;99.90;;;;;;4973232;28;20759;-70
2022/08/18 12:32:03;;;;;;;10.13;8.93;;;27.90;99.90;;;;;;4972637;28;20482;-69
2022/08/18 12:34:28;;;;;;;12.90;8.53;;;28.00;99.90;;;;;;4972964;28;20190;-68
2022/08/18 12:36:56;;;;;;;12.43;8.67;;;27.80;99.90;;;;;;4973182;28;20172;-71
2022/08/18 12:39:22;;;;;;;9.43;8.47;;;27.80;99.90;;;;;;4973223;28;20171;-68
2022/08/18 12:41:48;;;;;;;10.37;9.27;;;27.80;99.90;;;;;;4972316;28;20801;-71
2022/08/18 12:44:14;;;;;;;11.83;8.20;;;27.80;99.90;;;;;;4973201;28;20416;-71
2022/08/18 12:46:40;;;;;;;8.90;8.00;;;27.80;99.90;;;;;;4972926;28;20259;-71
2022/08/18 12:49:14;;;;;;;8.97;8.20;;;27.90;99.90;;;;;;4973344;28;20187;-71
2022/08/18 12:51:39;;;;;;;10.80;8.30;;;28.00;99.90;;;;;;4972285;28;20456;-71
2022/08/18 12:54:05;;;;;;;8.70;8.00;;;28.00;99.90;;;;;;4972909;28;20590;-71
2022/08/18 12:56:31;;;;;;;10.77;8.77;;;27.80;99.90;;;;;;4972676;28;20168;-71
2022/08/18 12:59:03;;;;;;;8.70;7.27;;;27.50;99.90;;;;;;4972327;28;20187;-72
2022/08/18 13:01:28;;;;;;;8.97;8.27;;;27.60;99.90;;;;;;4971621;28;20435;-70
2022/08/18 13:03:55;;;;;;;9.73;8.93;;;27.80;99.90;;;;;;4972384;28;20447;-70
2022/08/18 13:06:21;;;;;;;11.17;7.80;;;27.80;99.90;;;;;;4972512;28;20207;-71
2022/08/18 13:08:49;;;;;;;9.47;8.73;;;27.70;99.90;;;;;;4972825;28;20959;-71
2022/08/18 13:11:15;;;;;;;8.20;7.50;;;27.60;99.90;;;;;;4971958;28;20455;-69
2022/08/18 13:13:41;;;;;;;11.53;8.67;;;27.40;99.90;;;;;;4972090;28;20884;-71
2022/08/18 13:16:07;;;;;;;10.00;7.70;;;27.30;99.90;;;;;;4972663;28;20411;-71
2022/08/18 13:18:34;;;;;;;9.10;8.43;;;27.30;99.90;;;;;;4972314;28;20179;-71
2022/08/18 13:21:02;;;;;;;11.03;9.50;;;27.40;99.90;;;;;;4971851;28;20188;-71
2022/08/18 13:23:29;;;;;;;9.60;8.80;;;27.50;99.90;;;;;;4972079;28;20482;-71
2022/08/18 13:25:56;;;;;;;10.70;9.73;;;27.50;99.90;;;;;;4972370;28;20422;-70
2022/08/18 13:28:23;;;;;;;12.03;10.93;;;27.30;99.90;;;;;;4854379;28;20889;-70
2022/08/18 13:30:49;;;;;;;11.33;10.20;;;27.30;99.90;;;;;;4823171;29;20798;-75
2022/08/18 13:33:17;;;;;;;9.53;8.63;;;27.00;99.90;;;;;;4821762;29;20628;-73
2022/08/18 13:35:43;;;;;;;10.77;9.50;;;27.00;99.90;;;;;;4838393;29;20855;-76
2022/08/18 13:38:13;;;;;;;11.60;7.20;;;27.00;99.90;;;;;;4850648;29;20689;-76
2022/08/18 13:40:40;;;;;;;8.47;7.80;;;27.20;99.90;;;;;;4849012;29;20610;-76
2022/08/18 13:43:07;;;;;;;8.80;8.10;;;27.30;99.90;;;;;;4834197;29;20634;-75
2022/08/18 13:45:33;;;;;;;9.20;8.50;;;27.40;99.90;;;;;;4832584;29;20963;-76
2022/08/18 13:47:59;;;;;;;9.73;8.50;;;27.50;99.90;;;;;;4835908;29;21422;-75
2022/08/18 13:50:25;;;;;;;9.07;8.27;;;27.60;99.90;;;;;;4833849;29;21032;-75
2022/08/18 13:52:52;;;;;;;8.63;7.80;;;27.50;99.90;;;;;;4832025;29;20669;-75
2022/08/18 13:55:20;;;;;;;8.10;7.40;;;27.30;99.90;;;;;;4831990;29;20858;-75
2022/08/18 13:57:49;;;;;;;9.63;8.50;;;27.30;99.90;;;;;;4831770;28;20732;-75
2022/08/18 14:00:18;;;;;;;8.83;8.03;;;27.30;99.90;;;;;;4816607;29;20966;-75
2022/08/18 14:02:47;;;;;;;12.87;8.27;;;27.50;99.90;;;;;;4835632;28;20889;-75
2022/08/18 14:05:15;;;;;;;8.40;7.57;;;27.60;99.90;;;;;;4834661;29;20806;-75
2022/08/18 14:07:41;;;;;;;10.67;8.03;;;27.40;99.90;;;;;;4833837;29;20956;-75
2022/08/18 14:10:08;;;;;;;8.70;7.90;;;27.30;99.90;;;;;;4831975;29;20809;-73
2022/08/18 14:12:36;;;;;;;8.57;7.40;;;27.30;99.90;;;;;;4834456;29;21148;-73
2022/08/18 14:15:06;;;;;;;11.63;7.33;;;27.10;99.90;;;;;;4835716;28;21237;-73
2022/08/18 14:17:33;;;;;;;8.03;7.43;;;27.00;99.90;;;;;;4832978;29;20814;-73
2022/08/18 14:28:17;;;;;;;7.83;7.03;;;27.30;99.90;;;;;;4835619;29;20859;-74
2022/08/18 14:30:44;;;;;;;8.23;7.47;;;27.40;99.90;;;;;;4833452;28;21232;-73
2022/08/18 14:33:10;;;;;;;8.93;8.23;;;27.50;99.90;;;;;;4831659;29;20837;-73
2022/08/18 14:35:36;;;;;;;12.80;7.80;;;27.50;99.90;;;;;;4842451;29;20460;-73
2022/08/18 14:38:03;;;;;;;11.40;7.97;;;27.40;99.90;;;;;;4834483;29;20621;-72
2022/08/18 14:40:52;;;;;;;8.50;7.33;;;27.30;99.90;;;;;;4815940;29;21136;-75
2022/08/18 14:43:21;;;;;;;8.53;7.83;;;27.10;99.90;;;;;;4929215;29;20444;-72
2022/08/18 14:45:48;;;;;;;8.63;8.03;;;27.00;99.90;;;;;;4932811;29;20425;-72
2022/08/18 14:48:17;;;;;;;7.90;7.20;;;27.00;99.90;;;;;;4932858;29;20425;-72
2022/08/18 14:50:47;;;;;;;7.63;7.13;;;27.00;99.90;;;;;;4931541;29;20643;-73
2022/08/18 14:53:13;;;;;;;8.33;7.63;;;27.00;99.90;;;;;;4932662;29;20468;-71
2022/08/18 14:55:39;;;;;;;7.70;7.10;;;27.10;99.90;;;;;;4932998;29;20417;-73
2022/08/18 14:58:04;;;;;;;7.90;7.10;;;27.20;99.90;;;;;;4933101;29;20508;-72
2022/08/18 15:00:30;;;;;;;7.43;6.73;;;27.20;99.90;;;;;;4931765;29;20204;-73
2022/08/18 15:03:00;;;;;;;9.13;7.23;;;27.20;99.90;;;;;;4932359;29;20227;-72
2022/08/18 15:05:31;;;;;;;9.10;8.33;;;27.30;99.90;;;;;;4932730;29;20182;-73
2022/08/18 15:07:57;;;;;;;7.10;6.63;;;27.30;99.90;;;;;;4932059;29;20425;-72